首页
METAR-TAF:

METAR-TAF

机场 :

谢列梅捷沃国际机场

莫斯科舍列梅季耶夫, 俄罗斯

纬度: 55-58N, 经度: 037-25E, 海拔: 190米

当前天气观测

该预报发布于33分钟前的11:30 UTC
风速14节,风向
温度 1°C
湿度 86%
气压 1041 hPa
能见度10公里或以上
阴天层高于1200英尺

METAR: UUEE 201130Z 09007MPS 9999 OVC012 01/M01 Q1041 R06R/CLRD62 R06C/CLRD62 R06L/190057 NOSIG

时间: 15:03 (12:03 UTC)

预报

该预报发布于1小时和6分钟前的10:57 UTC
预报有效从20日的 12点(UTC)到 21日的 12点(UTC)
风速12节,风向东转东南,有时为23节阵风
能见度10公里或以上
多云层高于1100英尺

TAF: UUEE 201057Z 2012/2112 12006G12MPS 9999 BKN011 TX00/2012Z TNM05/2106Z

超过4000个机场的气象观测和天气预报(METAR&TAF报告)。

可查询的气象台以黄色和红色小点在地图上表示。

将鼠标移到小点上方,可查看气象台名称。

然后点击查看天气观测和预报。

如需切换地图:点击带黑十字的绿色按钮放大地图;点击带横线的绿色按钮缩小地图;或者点击绿色箭头查看邻近地区的地图。


METAR-TAF: